Newport, Arkansas
Current Conditions -  °F | °C
As of 1:56 AM on Sunday 21 Dec 2014 (Local Time) from KM19 Reporting Station
Clear Clear  
Wind Chill: 32°   Ceiling: Unl
Heat Index: 37°   Visibility: 8mi
Dew Point: 35°   Wind: 6mph
Humidity: 93%   Direction: 90°E
Pressure: 30.25"   Gusts: NA
Location:  35.6°N, 91.28°W
Report Text: KM19 210756Z AUTO 09005KT 8SM CLR 03/02 A3025 RMK AO2 T00270016 SLP245
Loading
Personal Weather Stations






























Interactive Weather Map New forecast layout! Learn more

10-Day Weather Forecast

Advertisements
Track Severe Weather on mobile